Portland, Oregon
Traffic Map
Current Weather Conditions
Portland, Oregon
Overcast
Overcast
11°
Feels Like: 11°
Wind Chill: 11° Ceiling: 6500
Heat Index: 11° Visibility: 10mi
Dew Point: Wind: 15mph
Humidity: 59% Direction: 320° (NW)
Pressure: 30.1in Gusts: 21mph
Raw Report DataKPDX 220253Z 32013G18KT 10SM FEW050 BKN065 OVC120 11/03 A3010 RMK AO2 RAB22E53 SLP193 P0000 60000 T01110033 51021
Traffic Incident Summary
Active as of:
Severity:
Category:
InformationThere was an issue retrieving the traffic information for this location. Please try a different location or try again shortly.
Advertisements
Track Severe Weather on mobile